createdAt,value
2018-10-03T00:00:08.638Z,100695.31
2018-10-03T00:02:37.744Z,100706.45
2018-10-03T00:05:06.689Z,100707.31
2018-10-03T00:07:35.722Z,100719.47
2018-10-03T00:10:04.828Z,100707.33
2018-10-03T00:12:33.893Z,100719.36
2018-10-03T00:15:02.959Z,100720.59
2018-10-03T00:17:32.035Z,100717.66
2018-10-03T00:20:00.980Z,100720.98
2018-10-03T00:22:30.028Z,100711.54
2018-10-03T00:24:58.980Z,100700.95
2018-10-03T00:27:27.907Z,100704.91
2018-10-03T00:29:56.851Z,100707.95
2018-10-03T00:32:25.803Z,100723.42
2018-10-03T00:34:54.744Z,100724.16
2018-10-03T00:37:23.669Z,100727.00
2018-10-03T00:39:52.652Z,100729.69
2018-10-03T00:42:21.594Z,100725.47
2018-10-03T00:44:50.593Z,100738.36
2018-10-03T00:47:19.644Z,100746.48
2018-10-03T00:49:48.699Z,100750.41
2018-10-03T00:52:17.632Z,100743.80
2018-10-03T00:54:46.618Z,100734.58
2018-10-03T00:57:15.525Z,100739.20
2018-10-03T00:59:44.457Z,100743.28
2018-10-03T01:02:13.469Z,100729.05
2018-10-03T01:04:42.403Z,100731.28
2018-10-03T01:07:11.943Z,100740.39
2018-10-03T01:09:40.953Z,100744.25
2018-10-03T01:12:09.897Z,100741.62
2018-10-03T01:14:38.812Z,100738.50
2018-10-03T01:17:07.733Z,100745.21
2018-10-03T01:19:36.700Z,100741.95
2018-10-03T01:22:05.607Z,100734.54
2018-10-03T01:24:34.578Z,100755.89
2018-10-03T01:27:03.528Z,100742.58
2018-10-03T01:29:32.625Z,100736.31
2018-10-03T01:32:01.671Z,100743.41
2018-10-03T01:34:30.668Z,100738.56
2018-10-03T01:36:59.627Z,100757.23
2018-10-03T01:39:28.515Z,100750.02
2018-10-03T01:41:57.413Z,100749.84
2018-10-03T01:44:26.382Z,100732.52
2018-10-03T01:46:55.303Z,100744.25
2018-10-03T01:49:24.268Z,100738.87
2018-10-03T01:51:53.215Z,100757.00
2018-10-03T01:54:22.188Z,100752.02
2018-10-03T01:56:51.085Z,100762.20
2018-10-03T01:59:19.998Z,100768.45
2018-10-03T02:01:48.893Z,100752.52
2018-10-03T02:04:17.845Z,100768.17
2018-10-03T02:06:46.765Z,100783.72
2018-10-03T02:09:15.705Z,100769.85
2018-10-03T02:11:44.599Z,100765.83
2018-10-03T02:14:13.568Z,100758.41
2018-10-03T02:16:42.533Z,100772.30
2018-10-03T02:19:11.474Z,100769.08
2018-10-03T02:21:40.406Z,100766.94
2018-10-03T02:24:09.512Z,100767.05
2018-10-03T02:26:38.468Z,100767.91
2018-10-03T02:29:07.405Z,100774.16
2018-10-03T02:31:36.342Z,100778.02
2018-10-03T02:34:05.312Z,100772.53
2018-10-03T02:36:34.208Z,100787.24
2018-10-03T02:39:03.304Z,100786.35
2018-10-03T02:41:32.245Z,100796.39
2018-10-03T02:44:01.219Z,100782.04
2018-10-03T02:46:30.306Z,100789.44
2018-10-03T02:48:59.337Z,100804.56
2018-10-03T02:51:28.396Z,100795.79
2018-10-03T02:53:57.360Z,100788.34
2018-10-03T02:56:26.287Z,100795.97
2018-10-03T02:58:55.335Z,100798.83
2018-10-03T03:01:24.368Z,100811.56
2018-10-03T03:03:53.379Z,100809.27
2018-10-03T03:06:22.437Z,100817.38
2018-10-03T03:08:51.389Z,100816.81
2018-10-03T03:11:20.297Z,100809.16
2018-10-03T03:13:49.246Z,100814.47
2018-10-03T03:16:18.191Z,100822.12
2018-10-03T03:18:47.153Z,100820.41
2018-10-03T03:21:16.125Z,100823.16
2018-10-03T03:23:45.426Z,100821.41
2018-10-03T03:26:14.332Z,100848.09
2018-10-03T03:28:43.282Z,100856.14
2018-10-03T03:31:12.173Z,100859.92
2018-10-03T03:33:41.152Z,100861.40
2018-10-03T03:36:10.077Z,100860.40
2018-10-03T03:38:38.993Z,100856.25
2018-10-03T03:41:07.882Z,100847.79
2018-10-03T03:43:36.837Z,100852.45
2018-10-03T03:46:05.827Z,100851.86
2018-10-03T03:48:36.660Z,100850.47
2018-10-03T03:51:05.566Z,100856.06
2018-10-03T03:53:34.454Z,100859.64
2018-10-03T03:56:03.404Z,100866.58
2018-10-03T03:58:33.399Z,100880.28
2018-10-03T04:01:02.399Z,100882.09
2018-10-03T04:03:31.351Z,100878.65
2018-10-03T04:06:00.286Z,100871.22
2018-10-03T04:08:29.204Z,100873.33
2018-10-03T04:10:58.123Z,100871.86
2018-10-03T04:13:27.077Z,100874.37
2018-10-03T04:15:55.980Z,100881.19
2018-10-03T04:18:24.923Z,100875.50
2018-10-03T04:20:53.818Z,100887.00
2018-10-03T04:23:22.763Z,100877.22
2018-10-03T04:25:51.672Z,100876.33
2018-10-03T04:28:20.672Z,100883.33
2018-10-03T04:30:49.602Z,100881.89
2018-10-03T04:33:18.559Z,100883.33
2018-10-03T04:35:47.498Z,100890.16
2018-10-03T04:38:16.416Z,100882.84
2018-10-03T04:40:45.338Z,100885.17
2018-10-03T04:43:14.238Z,100892.58
2018-10-03T04:45:43.164Z,100887.70
2018-10-03T04:48:12.113Z,100894.92
2018-10-03T04:50:41.035Z,100898.37
2018-10-03T04:53:09.976Z,100903.66
2018-10-03T04:55:38.901Z,100900.25
2018-10-03T04:58:07.807Z,100899.73
2018-10-03T05:00:36.757Z,100927.83
2018-10-03T05:03:06.003Z,100905.03
2018-10-03T05:05:34.953Z,100921.55
2018-10-03T05:08:03.910Z,100920.07
2018-10-03T05:10:32.835Z,100927.39
2018-10-03T05:13:01.797Z,100933.37
2018-10-03T05:15:30.753Z,100932.63
2018-10-03T05:17:59.655Z,100941.09
2018-10-03T05:20:28.612Z,100933.61
2018-10-03T05:22:57.558Z,100940.03
2018-10-03T05:25:26.486Z,100945.47
2018-10-03T05:27:55.533Z,100945.39
2018-10-03T05:30:24.396Z,100944.55
2018-10-03T05:32:53.291Z,100945.16
2018-10-03T05:35:22.214Z,100941.58
2018-10-03T05:37:51.165Z,100959.77
2018-10-03T05:40:20.102Z,100975.44
2018-10-03T05:42:49.034Z,100979.75
2018-10-03T05:45:17.981Z,100972.36
2018-10-03T05:47:46.894Z,100981.66
2018-10-03T05:50:15.803Z,100982.50
2018-10-03T05:52:44.764Z,100981.38
2018-10-03T05:55:13.696Z,100982.44
2018-10-03T05:57:42.642Z,100988.67
2018-10-03T06:00:11.590Z,100989.87
2018-10-03T06:02:40.558Z,101002.30
2018-10-03T06:05:09.490Z,101015.27
2018-10-03T06:07:38.385Z,101008.05
2018-10-03T06:10:07.421Z,101019.66
2018-10-03T06:12:36.333Z,101021.45
2018-10-03T06:15:05.969Z,101028.44
2018-10-03T06:17:34.877Z,101033.48
2018-10-03T06:20:04.015Z,101041.24
2018-10-03T06:22:32.933Z,101044.98
2018-10-03T06:25:01.830Z,101059.02
2018-10-03T06:27:30.799Z,101064.34
2018-10-03T06:29:59.736Z,101066.23
2018-10-03T06:32:28.635Z,101068.47
2018-10-03T06:34:57.595Z,101068.06
2018-10-03T06:37:26.503Z,101084.17
2018-10-03T06:39:55.398Z,101089.76
2018-10-03T06:42:24.355Z,101089.53
2018-10-03T06:44:53.245Z,101097.59
2018-10-03T06:49:30.174Z,101097.43
2018-10-03T06:51:59.096Z,101105.63
2018-10-03T06:54:28.029Z,101109.45
2018-10-03T06:56:57.079Z,101118.68
2018-10-03T06:59:25.948Z,101125.21
2018-10-03T07:01:54.885Z,101127.38
2018-10-03T07:04:23.794Z,101135.43
2018-10-03T07:06:52.734Z,101138.19
2018-10-03T07:09:21.665Z,101152.58
2018-10-03T07:11:50.630Z,101154.16
2018-10-03T07:14:19.683Z,101151.25
2018-10-03T07:16:49.451Z,101154.00
2018-10-03T07:19:18.413Z,101165.39
2018-10-03T07:21:47.343Z,101162.05
2018-10-03T07:24:30.927Z,101166.64
2018-10-03T07:27:00.978Z,101178.80
2018-10-03T07:29:29.909Z,101186.09
2018-10-03T07:31:58.917Z,101175.34
2018-10-03T07:34:28.064Z,101189.73
2018-10-03T07:36:56.982Z,101185.78
2018-10-03T07:39:25.959Z,101195.10
2018-10-03T07:41:54.927Z,101204.81
2018-10-03T07:44:23.878Z,101209.66
2018-10-03T07:46:52.807Z,101204.88
2018-10-03T07:49:21.741Z,101212.66
2018-10-03T07:51:50.653Z,101204.68
2018-10-03T07:54:19.650Z,101223.83
2018-10-03T07:56:48.574Z,101222.05
2018-10-03T07:59:17.492Z,101227.02
2018-10-03T08:01:46.523Z,101229.33
2018-10-03T08:04:15.444Z,101249.09
2018-10-03T08:06:44.366Z,101244.08
2018-10-03T08:09:13.330Z,101238.92
2018-10-03T08:11:42.303Z,101245.62
2018-10-03T08:14:11.221Z,101254.05
2018-10-03T08:16:40.116Z,101253.89
2018-10-03T08:19:09.053Z,101270.03
2018-10-03T08:21:38.019Z,101273.61
2018-10-03T08:24:06.956Z,101290.67
2018-10-03T08:26:35.884Z,101284.77
2018-10-03T08:29:04.863Z,101281.05
2018-10-03T08:31:33.783Z,101291.39
2018-10-03T08:34:02.727Z,101294.27
2018-10-03T08:36:31.643Z,101299.23
2018-10-03T08:39:00.590Z,101307.23
2018-10-03T08:41:29.574Z,101309.07
2018-10-03T08:43:58.495Z,101316.89
2018-10-03T08:46:27.529Z,101314.20
2018-10-03T08:48:56.447Z,101330.38
2018-10-03T08:51:25.593Z,101329.73
2018-10-03T08:53:54.570Z,101329.80
2018-10-03T08:56:23.556Z,101343.06
2018-10-03T08:58:52.500Z,101341.36
2018-10-03T09:01:21.495Z,101349.84
2018-10-03T09:03:50.779Z,101355.33
2018-10-03T09:06:19.726Z,101355.97
2018-10-03T09:08:49.373Z,101353.50
2018-10-03T09:11:18.342Z,101363.75
2018-10-03T09:13:47.276Z,101374.29
2018-10-03T09:16:16.235Z,101363.13
2018-10-03T09:18:45.137Z,101377.05
2018-10-03T09:21:14.249Z,101378.41
2018-10-03T09:23:43.647Z,101374.82
2018-10-03T09:26:12.575Z,101392.95
2018-10-03T09:28:41.507Z,101394.23
2018-10-03T09:31:10.496Z,101407.17
2018-10-03T09:33:39.574Z,101401.01
2018-10-03T09:36:08.544Z,101403.83
2018-10-03T09:38:37.565Z,101411.96
2018-10-03T09:41:06.663Z,101405.77
2018-10-03T09:43:35.607Z,101422.41
2018-10-03T09:46:04.612Z,101419.99
2018-10-03T09:48:33.606Z,101438.34
2018-10-03T09:51:02.606Z,101417.05
2018-10-03T09:53:31.527Z,101417.73
2018-10-03T09:56:00.868Z,101425.09
2018-10-03T09:58:29.854Z,101434.28
2018-10-03T10:01:04.197Z,101437.86
2018-10-03T10:03:34.406Z,101439.56
2018-10-03T10:06:03.346Z,101442.88
2018-10-03T10:08:32.266Z,101465.56
2018-10-03T10:11:01.306Z,101463.33
2018-10-03T10:13:30.192Z,101455.53
2018-10-03T10:15:59.155Z,101455.53
2018-10-03T10:18:28.187Z,101466.45
2018-10-03T10:20:57.216Z,101473.88
2018-10-03T10:23:26.161Z,101484.72
2018-10-03T10:25:55.109Z,101490.05
2018-10-03T10:28:24.035Z,101479.56
2018-10-03T10:30:52.968Z,101475.95
2018-10-03T10:33:21.884Z,101483.66
2018-10-03T10:35:51.017Z,101488.11
2018-10-03T10:38:19.968Z,101487.11
2018-10-03T10:40:48.961Z,101498.84
2018-10-03T10:43:18.234Z,101495.52
2018-10-03T10:45:47.258Z,101512.33
2018-10-03T10:48:16.264Z,101513.16
2018-10-03T10:50:45.521Z,101518.00
2018-10-03T10:53:14.462Z,101506.98
2018-10-03T10:55:43.580Z,101501.64
2018-10-03T10:58:12.556Z,101503.59
2018-10-03T11:00:41.507Z,101516.98
2018-10-03T11:03:10.482Z,101503.94
2018-10-03T11:05:39.435Z,101502.78
2018-10-03T11:08:08.390Z,101514.92
2018-10-03T11:10:37.361Z,101516.73
2018-10-03T11:13:06.914Z,101524.83
2018-10-03T11:15:35.909Z,101526.71
2018-10-03T11:18:04.839Z,101526.09
2018-10-03T11:20:33.781Z,101533.00
2018-10-03T11:23:02.931Z,101544.75
2018-10-03T11:25:31.833Z,101548.39
2018-10-03T11:28:00.807Z,101536.70
2018-10-03T11:30:29.706Z,101548.91
2018-10-03T11:32:58.645Z,101536.21
2018-10-03T11:35:27.610Z,101537.55
2018-10-03T11:37:56.578Z,101544.66
2018-10-03T11:40:25.514Z,101559.16
2018-10-03T11:42:54.493Z,101568.03
2018-10-03T11:45:23.432Z,101569.98
2018-10-03T11:47:52.367Z,101586.84
2018-10-03T11:50:21.362Z,101583.45
2018-10-03T11:52:50.299Z,101578.17
2018-10-03T11:55:19.328Z,101577.16
2018-10-03T11:57:48.293Z,101572.55
2018-10-03T12:00:17.225Z,101569.91
2018-10-03T12:02:46.211Z,101579.38
2018-10-03T12:05:15.107Z,101582.28
2018-10-03T12:07:45.775Z,101589.78
2018-10-03T12:10:14.778Z,101593.47
2018-10-03T12:12:43.709Z,101607.27
2018-10-03T12:15:12.660Z,101618.86
2018-10-03T12:17:41.559Z,101625.55
2018-10-03T12:20:10.591Z,101629.17
2018-10-03T12:22:39.569Z,101622.94
2018-10-03T12:25:08.558Z,101629.11
2018-10-03T12:27:37.548Z,101619.81
2018-10-03T12:30:06.601Z,101614.53
2018-10-03T12:32:35.590Z,101619.23
2018-10-03T12:35:04.607Z,101623.45
2018-10-03T12:37:33.550Z,101621.92
2018-10-03T12:40:02.647Z,101610.96
2018-10-03T12:42:31.629Z,101612.47
2018-10-03T12:45:00.571Z,101624.07
2018-10-03T12:47:29.472Z,101621.82
2018-10-03T12:49:58.582Z,101635.33
2018-10-03T12:52:27.536Z,101635.59
2018-10-03T12:54:56.440Z,101630.81
2018-10-03T12:57:25.392Z,101625.25
2018-10-03T12:59:54.324Z,101648.05
2018-10-03T13:02:23.256Z,101629.27
2018-10-03T13:04:52.228Z,101641.62
2018-10-03T13:07:21.145Z,101635.75
2018-10-03T13:09:50.131Z,101635.39
2018-10-03T13:12:19.066Z,101649.15
2018-10-03T13:14:48.018Z,101645.10
2018-10-03T13:17:22.376Z,101655.95
2018-10-03T13:19:51.337Z,101656.96
2018-10-03T13:22:20.288Z,101667.87
2018-10-03T13:24:49.468Z,101656.41
2018-10-03T13:27:21.481Z,101666.86
2018-10-03T13:29:50.444Z,101670.80
2018-10-03T13:32:19.351Z,101676.77
2018-10-03T13:34:48.270Z,101679.59
2018-10-03T13:37:17.233Z,101694.08
2018-10-03T13:39:47.393Z,101695.67
2018-10-03T13:42:16.327Z,101696.80
2018-10-03T13:44:45.284Z,101693.34
2018-10-03T13:47:14.266Z,101696.33
2018-10-03T13:49:43.254Z,101704.61
2018-10-03T13:52:12.203Z,101690.45
2018-10-03T13:54:41.153Z,101701.56
2018-10-03T13:57:10.046Z,101706.48
2018-10-03T13:59:39.023Z,101708.86
2018-10-03T14:02:07.990Z,101711.41
2018-10-03T14:04:37.197Z,101738.14
2018-10-03T14:07:06.125Z,101730.29
2018-10-03T14:09:35.415Z,101728.95
2018-10-03T14:12:10.387Z,101719.29
2018-10-03T14:14:42.912Z,101720.86
2018-10-03T14:17:12.334Z,101713.00
2018-10-03T14:19:41.260Z,101717.74
2018-10-03T14:22:11.044Z,101718.61
2018-10-03T14:24:39.987Z,101711.93
2018-10-03T14:27:09.013Z,101727.38
2018-10-03T14:29:37.956Z,101724.27
2018-10-03T14:32:06.897Z,101722.81
2018-10-03T14:34:35.869Z,101728.17
2018-10-03T14:37:04.792Z,101724.42
2018-10-03T14:39:33.811Z,101727.91
2018-10-03T14:42:02.754Z,101721.73
2018-10-03T14:44:31.746Z,101727.64
2018-10-03T14:47:00.694Z,101729.21
2018-10-03T14:49:29.664Z,101729.50
2018-10-03T14:51:58.685Z,101736.05
2018-10-03T14:54:27.644Z,101734.56
2018-10-03T14:56:56.558Z,101743.21
2018-10-03T14:59:25.546Z,101744.29
2018-10-03T15:01:54.585Z,101747.34
2018-10-03T15:04:23.448Z,101743.55
2018-10-03T15:06:52.436Z,101736.81
2018-10-03T15:09:21.406Z,101739.03
2018-10-03T15:11:50.397Z,101744.27
2018-10-03T15:14:19.350Z,101745.77
2018-10-03T15:16:48.668Z,101762.16
2018-10-03T15:19:24.946Z,101749.66
2018-10-03T15:21:53.933Z,101763.58
2018-10-03T15:24:22.943Z,101757.59
2018-10-03T15:26:51.956Z,101753.95
2018-10-03T15:29:20.959Z,101763.48
2018-10-03T15:31:50.289Z,101748.39
2018-10-03T15:34:21.397Z,101772.26
2018-10-03T15:36:50.407Z,101769.27
2018-10-03T15:39:19.433Z,101772.83
2018-10-03T15:41:56.300Z,101782.70
2018-10-03T15:44:25.194Z,101779.97
2018-10-03T15:46:54.213Z,101796.31
2018-10-03T15:49:23.162Z,101784.66
2018-10-03T15:51:56.046Z,101788.12
2018-10-03T15:54:25.009Z,101789.51
2018-10-03T15:56:53.975Z,101788.38
2018-10-03T15:59:23.096Z,101799.95
2018-10-03T16:01:52.042Z,101807.05
2018-10-03T16:04:21.027Z,101797.75
2018-10-03T16:06:53.902Z,101798.69
2018-10-03T16:09:22.889Z,101797.55
2018-10-03T16:11:51.868Z,101802.81
2018-10-03T16:14:20.842Z,101810.04
2018-10-03T16:16:49.795Z,101805.39
2018-10-03T16:19:18.738Z,101816.94
2018-10-03T16:21:47.714Z,101813.11
2018-10-03T16:24:18.716Z,101813.34
2018-10-03T16:26:47.756Z,101820.09
2018-10-03T16:29:16.630Z,101824.32
2018-10-03T16:31:45.792Z,101822.06
2018-10-03T16:34:14.755Z,101823.11
2018-10-03T16:36:43.719Z,101828.80
2018-10-03T16:39:12.772Z,101835.69
2018-10-03T16:41:41.633Z,101833.64
2018-10-03T16:44:10.753Z,101827.50
2018-10-03T16:46:39.706Z,101831.02
2018-10-03T16:49:08.672Z,101830.73
2018-10-03T16:51:37.649Z,101825.25
2018-10-03T16:54:06.595Z,101835.69
2018-10-03T16:56:35.590Z,101831.80
2018-10-03T16:59:04.638Z,101838.17
2018-10-03T17:01:33.660Z,101840.58
2018-10-03T17:04:02.614Z,101849.28
2018-10-03T17:06:31.665Z,101855.84
2018-10-03T17:09:00.653Z,101871.36
2018-10-03T17:11:29.648Z,101868.81
2018-10-03T17:14:35.810Z,101856.83
2018-10-03T17:17:04.934Z,101851.72
2018-10-03T17:19:33.952Z,101854.20
2018-10-03T17:22:03.407Z,101854.41
2018-10-03T17:24:33.565Z,101857.51
2018-10-03T17:27:02.579Z,101868.22
2018-10-03T17:29:31.587Z,101875.25
2018-10-03T17:32:00.517Z,101882.45
2018-10-03T17:34:29.496Z,101870.30
2018-10-03T17:36:58.414Z,101867.83
2018-10-03T17:39:28.043Z,101877.65
2018-10-03T17:41:57.056Z,101884.19
2018-10-03T17:44:26.246Z,101889.32
2018-10-03T17:46:56.552Z,101886.92
2018-10-03T17:49:25.545Z,101894.14
2018-10-03T17:51:55.263Z,101894.42
2018-10-03T17:54:24.216Z,101906.83
2018-10-03T17:56:53.163Z,101907.47
2018-10-03T17:59:22.145Z,101906.27
2018-10-03T18:01:53.920Z,101895.63
2018-10-03T18:04:22.930Z,101915.47
2018-10-03T18:06:51.849Z,101916.90
2018-10-03T18:09:20.903Z,101927.97
2018-10-03T18:11:49.834Z,101945.56
2018-10-03T18:14:18.813Z,101930.38
2018-10-03T18:16:47.764Z,101934.61
2018-10-03T18:19:16.742Z,101930.88
2018-10-03T18:21:45.734Z,101931.50
2018-10-03T18:24:14.725Z,101928.36
2018-10-03T18:26:43.681Z,101926.48
2018-10-03T18:29:12.670Z,101928.79
2018-10-03T18:31:41.599Z,101940.70
2018-10-03T18:34:10.605Z,101937.00
2018-10-03T18:36:39.560Z,101947.65
2018-10-03T18:39:09.337Z,101941.02
2018-10-03T18:41:38.369Z,101942.69
2018-10-03T18:44:07.312Z,101940.69
2018-10-03T18:46:36.245Z,101941.78
2018-10-03T18:49:05.225Z,101938.33
2018-10-03T18:51:34.290Z,101942.50
2018-10-03T18:54:03.463Z,101946.03
2018-10-03T18:56:32.389Z,101934.75
2018-10-03T18:59:01.349Z,101938.97
2018-10-03T19:01:30.329Z,101936.81
2018-10-03T19:03:59.329Z,101935.17
2018-10-03T19:06:28.295Z,101940.94
2018-10-03T19:08:57.277Z,101943.41
2018-10-03T19:11:26.305Z,101944.64
2018-10-03T19:13:55.284Z,101946.07
2018-10-03T19:16:24.241Z,101950.58
2018-10-03T19:18:53.243Z,101951.58
2018-10-03T19:21:22.219Z,101956.79
2018-10-03T19:23:51.196Z,101963.34
2018-10-03T19:26:20.223Z,101956.89
2018-10-03T19:28:49.144Z,101948.02
2018-10-03T19:31:18.073Z,101957.91
2018-10-03T19:33:47.034Z,101959.74
2018-10-03T19:36:16.005Z,101956.65
2018-10-03T19:38:44.990Z,101964.78
2018-10-03T19:41:13.932Z,101973.91
2018-10-03T19:43:42.877Z,101961.86
2018-10-03T19:46:11.902Z,101964.67
2018-10-03T19:48:40.900Z,101966.49
2018-10-03T19:51:09.892Z,101968.89
2018-10-03T19:53:39.145Z,101965.14
2018-10-03T19:56:08.067Z,101962.70
2018-10-03T19:58:37.009Z,101969.34
2018-10-03T20:01:05.999Z,101968.10
2018-10-03T20:03:35.232Z,101967.14
2018-10-03T20:06:04.064Z,101962.16
2018-10-03T20:08:32.993Z,101959.87
2018-10-03T20:11:01.947Z,101958.20
2018-10-03T20:13:30.920Z,101964.69
2018-10-03T20:16:00.226Z,101967.30
2018-10-03T20:18:29.215Z,101967.05
2018-10-03T20:20:58.204Z,101968.67
2018-10-03T20:23:27.152Z,101974.95
2018-10-03T20:25:56.148Z,101981.66
2018-10-03T20:28:25.128Z,101989.16
2018-10-03T20:30:54.099Z,101982.70
2018-10-03T20:33:23.803Z,101993.47
2018-10-03T20:35:52.772Z,101990.63
2018-10-03T20:38:21.744Z,101989.27
2018-10-03T20:40:51.687Z,101994.62
2018-10-03T20:43:20.762Z,101987.52
2018-10-03T20:45:50.002Z,101990.86
2018-10-03T20:48:19.016Z,101986.65
2018-10-03T20:50:47.905Z,101987.45
2018-10-03T20:53:17.136Z,101990.92
2018-10-03T20:55:46.105Z,101989.94
2018-10-03T20:58:15.046Z,101999.57
2018-10-03T21:00:44.175Z,101990.66
2018-10-03T21:03:13.319Z,102000.70
2018-10-03T21:05:42.459Z,102002.08
2018-10-03T21:08:11.423Z,102001.42
2018-10-03T21:10:40.384Z,102005.64
2018-10-03T21:13:09.355Z,102005.28
2018-10-03T21:15:38.386Z,102008.36
2018-10-03T21:18:07.380Z,102002.34
2018-10-03T21:20:36.362Z,102002.49
2018-10-03T21:23:05.329Z,102014.58
2018-10-03T21:25:34.270Z,102014.64
2018-10-03T21:28:03.282Z,102007.05
2018-10-03T21:30:32.253Z,102005.12
2018-10-03T21:33:01.426Z,102001.09
2018-10-03T21:35:30.437Z,102001.75
2018-10-03T21:37:59.418Z,102006.27
2018-10-03T21:40:29.073Z,102007.67
2018-10-03T21:42:58.116Z,102001.09
2018-10-03T21:45:27.079Z,102002.41
2018-10-03T21:47:56.012Z,102004.52
2018-10-03T21:50:24.975Z,102003.92
2018-10-03T21:52:53.959Z,102004.26
2018-10-03T21:55:22.972Z,102008.47
2018-10-03T21:57:52.037Z,102001.62
2018-10-03T22:00:20.992Z,101999.48
2018-10-03T22:02:50.023Z,101995.91
2018-10-03T22:05:19.046Z,101996.12
2018-10-03T22:07:48.186Z,101997.75
2018-10-03T22:10:17.184Z,101996.48
2018-10-03T22:12:46.308Z,101998.05
2018-10-03T22:15:15.382Z,102001.62
2018-10-03T22:17:44.386Z,102001.96
2018-10-03T22:20:13.307Z,102002.97
2018-10-03T22:22:42.496Z,101992.58
2018-10-03T22:25:11.588Z,101996.31
2018-10-03T22:27:40.970Z,101996.31
2018-10-03T22:30:12.115Z,101991.93
2018-10-03T22:32:43.516Z,101990.76
2018-10-03T22:35:12.526Z,101984.06
2018-10-03T22:37:41.461Z,101996.31
2018-10-03T22:40:10.545Z,101995.94
2018-10-03T22:42:39.635Z,101985.50
2018-10-03T22:45:08.626Z,101981.95
2018-10-03T22:47:37.647Z,101990.11
2018-10-03T22:50:06.593Z,101985.42
2018-10-03T22:52:35.622Z,101989.84
2018-10-03T22:55:04.593Z,101990.11
2018-10-03T22:57:33.539Z,101984.16
2018-10-03T23:00:02.551Z,101990.27
2018-10-03T23:02:31.611Z,101989.43
2018-10-03T23:05:00.555Z,101990.98
2018-10-03T23:07:29.542Z,101995.26
2018-10-03T23:09:58.526Z,101996.60
2018-10-03T23:12:27.424Z,102001.80
2018-10-03T23:14:56.359Z,102001.61
2018-10-03T23:17:25.272Z,101987.95
2018-10-03T23:19:54.248Z,101989.90
2018-10-03T23:22:23.219Z,101992.33
2018-10-03T23:24:52.174Z,101990.69
2018-10-03T23:27:21.108Z,101996.52
2018-10-03T23:29:50.014Z,102002.47
2018-10-03T23:32:18.989Z,102005.52
2018-10-03T23:34:47.945Z,102007.09
2018-10-03T23:37:16.892Z,102009.44
2018-10-03T23:39:45.827Z,102007.52
2018-10-03T23:42:14.731Z,102002.76
2018-10-03T23:44:43.650Z,102002.30
2018-10-03T23:47:12.630Z,102013.62
2018-10-03T23:49:41.597Z,102017.05
2018-10-03T23:52:10.545Z,102025.22
2018-10-03T23:54:39.520Z,102030.78
2018-10-03T23:57:08.446Z,102025.31
2018-10-03T23:59:37.680Z,102025.11
